createdAt,value
2022-10-31T00:03:19.389Z,11.98
2022-10-31T00:08:20.876Z,9.88
2022-10-31T00:18:29.422Z,11.80
2022-10-31T00:23:30.993Z,14.15
2022-10-31T00:28:33.098Z,17.90
2022-10-31T00:33:37.602Z,12.82
2022-10-31T00:38:39.325Z,9.77
2022-10-31T00:43:40.879Z,10.27
2022-10-31T00:48:43.107Z,11.27
2022-10-31T00:53:44.938Z,9.23
2022-10-31T00:58:47.583Z,11.77
2022-10-31T01:03:49.146Z,13.52
2022-10-31T01:08:50.815Z,10.07
2022-10-31T01:13:54.161Z,10.23
2022-10-31T01:18:56.129Z,10.85
2022-10-31T01:23:58.031Z,9.30
2022-10-31T01:29:02.410Z,8.95
2022-10-31T01:34:04.273Z,15.02
2022-10-31T01:39:10.435Z,10.05
2022-10-31T01:44:14.729Z,10.57
2022-10-31T01:49:24.784Z,8.63
2022-10-31T01:54:31.015Z,13.90
2022-10-31T01:59:35.133Z,12.52
2022-10-31T02:04:37.492Z,15.57
2022-10-31T02:09:40.821Z,11.75
2022-10-31T02:14:43.193Z,12.55
2022-10-31T02:20:13.947Z,9.88
2022-10-31T02:25:30.308Z,14.55
2022-10-31T02:30:54.872Z,9.43
2022-10-31T02:36:11.700Z,14.68
2022-10-31T02:41:25.928Z,11.57
2022-10-31T02:46:44.201Z,9.43
2022-10-31T02:51:46.436Z,10.35
2022-10-31T02:56:50.170Z,12.07
2022-10-31T03:02:04.045Z,12.82
2022-10-31T03:07:26.644Z,10.70
2022-10-31T03:12:36.433Z,11.15
2022-10-31T03:17:57.274Z,11.63
2022-10-31T03:23:02.028Z,16.73
2022-10-31T03:28:06.841Z,11.80
2022-10-31T03:33:14.421Z,15.40
2022-10-31T03:48:29.867Z,11.85
2022-10-31T03:54:13.183Z,15.88
2022-10-31T03:59:25.378Z,15.80
2022-10-31T04:04:28.472Z,12.13
2022-10-31T04:09:34.396Z,17.65
2022-10-31T04:14:40.890Z,19.30
2022-10-31T04:19:42.600Z,16.05
2022-10-31T04:24:44.259Z,15.57
2022-10-31T04:29:48.323Z,16.25
2022-10-31T04:34:52.350Z,22.88
2022-10-31T04:39:53.893Z,19.77
2022-10-31T04:44:55.400Z,21.13
2022-10-31T04:49:56.926Z,20.27
2022-10-31T04:54:58.441Z,24.88
2022-10-31T04:59:59.976Z,18.15
2022-10-31T05:05:01.589Z,22.42
2022-10-31T05:10:03.128Z,20.02
2022-10-31T05:15:06.250Z,25.70
2022-10-31T05:20:08.174Z,18.27
2022-10-31T05:25:09.873Z,24.13
2022-10-31T05:30:13.693Z,19.63
2022-10-31T05:35:19.431Z,29.95
2022-10-31T05:40:22.120Z,26.65
2022-10-31T05:45:24.092Z,25.90
2022-10-31T05:50:27.178Z,26.50
2022-10-31T05:55:29.755Z,29.30
2022-10-31T06:00:31.297Z,36.83
2022-10-31T06:05:33.530Z,31.63
2022-10-31T06:10:35.634Z,40.67
2022-10-31T06:15:37.162Z,37.88
2022-10-31T06:20:38.731Z,43.58
2022-10-31T06:25:40.260Z,38.00
2022-10-31T06:30:41.833Z,43.80
2022-10-31T06:35:49.574Z,32.95
2022-10-31T06:40:51.163Z,47.80
2022-10-31T06:45:52.724Z,42.38
2022-10-31T06:50:59.407Z,42.50
2022-10-31T06:56:01.261Z,47.73
2022-10-31T07:01:03.022Z,51.28
2022-10-31T07:06:05.644Z,51.17
2022-10-31T07:11:07.272Z,41.55
2022-10-31T07:16:09.341Z,51.10
2022-10-31T07:21:10.916Z,47.63
2022-10-31T07:26:12.534Z,45.83
2022-10-31T07:31:14.102Z,50.35
2022-10-31T07:36:16.560Z,49.10
2022-10-31T07:41:18.132Z,40.90
2022-10-31T07:46:19.667Z,48.58
2022-10-31T07:51:23.879Z,42.47
2022-10-31T07:56:25.446Z,43.15
2022-10-31T08:01:27.141Z,44.47
2022-10-31T08:06:28.684Z,38.08
2022-10-31T08:11:30.214Z,34.97
2022-10-31T08:16:31.748Z,33.20
2022-10-31T08:21:33.719Z,33.92
2022-10-31T08:26:35.252Z,33.90
2022-10-31T08:37:04.182Z,33.42
2022-10-31T08:42:05.727Z,28.90
2022-10-31T08:47:07.326Z,31.63
2022-10-31T08:52:14.197Z,29.48
2022-10-31T08:57:16.050Z,25.98
2022-10-31T09:02:17.672Z,31.30
2022-10-31T09:07:21.184Z,27.80
2022-10-31T09:12:24.897Z,28.52
2022-10-31T09:17:27.725Z,23.90
2022-10-31T09:22:29.274Z,31.67
2022-10-31T09:27:30.829Z,23.20
2022-10-31T09:32:32.482Z,26.52
2022-10-31T09:37:34.017Z,27.15
2022-10-31T09:42:48.886Z,23.15
2022-10-31T09:48:11.265Z,24.40
2022-10-31T09:53:34.062Z,23.05
2022-10-31T09:58:44.623Z,23.88
2022-10-31T10:03:49.379Z,26.08
2022-10-31T10:08:50.984Z,27.25
2022-10-31T10:14:01.270Z,21.80
2022-10-31T10:19:18.241Z,21.20
2022-10-31T10:25:11.281Z,22.30
2022-10-31T10:30:19.764Z,21.13
2022-10-31T10:35:37.310Z,23.42
2022-10-31T10:40:39.091Z,17.77
2022-10-31T10:46:00.065Z,25.23
2022-10-31T10:51:04.656Z,22.88
2022-10-31T10:56:33.707Z,18.35
2022-10-31T11:01:35.269Z,23.50
2022-10-31T11:06:36.774Z,20.38
2022-10-31T11:11:39.768Z,22.02
2022-10-31T11:16:45.643Z,18.85
2022-10-31T11:21:53.684Z,16.13
2022-10-31T11:27:14.715Z,16.15
2022-10-31T11:32:25.047Z,15.73
2022-10-31T11:37:30.005Z,16.83
2022-10-31T11:42:39.894Z,17.63
2022-10-31T11:47:45.862Z,18.05
2022-10-31T11:52:47.976Z,17.55
2022-10-31T11:57:52.437Z,15.88
2022-10-31T12:03:05.990Z,16.60
2022-10-31T12:08:12.326Z,12.60
2022-10-31T12:13:31.506Z,18.30
2022-10-31T12:18:49.227Z,14.05
2022-10-31T12:24:06.428Z,15.15
2022-10-31T12:29:32.271Z,16.83
2022-10-31T12:34:52.941Z,15.05
2022-10-31T12:39:57.312Z,13.55
2022-10-31T12:45:15.432Z,15.05
2022-10-31T12:50:36.184Z,15.80
2022-10-31T12:56:01.820Z,18.05
2022-10-31T13:01:16.213Z,19.58
2022-10-31T13:06:22.707Z,23.08
2022-10-31T13:11:33.273Z,20.55
2022-10-31T13:16:41.549Z,18.30
2022-10-31T13:21:45.816Z,19.60
2022-10-31T13:26:55.038Z,22.27
2022-10-31T13:31:56.702Z,30.08
2022-10-31T13:37:11.124Z,25.25
2022-10-31T13:42:42.965Z,27.50
2022-10-31T13:47:55.315Z,25.77
2022-10-31T13:53:18.642Z,24.65
2022-10-31T13:58:32.785Z,25.75
2022-10-31T14:04:03.612Z,22.58
2022-10-31T14:08:59.395Z,23.48
2022-10-31T14:14:02.731Z,26.13
2022-10-31T14:19:21.518Z,24.80
2022-10-31T14:24:26.002Z,25.23
2022-10-31T14:29:32.416Z,30.60
2022-10-31T14:34:38.414Z,27.00
2022-10-31T14:40:01.304Z,23.92
2022-10-31T14:45:28.627Z,24.15
2022-10-31T14:50:48.784Z,26.15
2022-10-31T14:55:53.361Z,26.13
2022-10-31T15:00:57.437Z,21.15
2022-10-31T15:06:05.159Z,25.05
2022-10-31T15:11:15.724Z,21.83
2022-10-31T15:21:45.828Z,20.85
2022-10-31T15:26:49.908Z,26.60
2022-10-31T15:31:59.644Z,20.77
2022-10-31T15:37:01.226Z,29.48
2022-10-31T15:42:02.986Z,20.73
2022-10-31T15:47:06.338Z,28.48
2022-10-31T15:52:10.696Z,23.05
2022-10-31T15:57:13.088Z,22.80
2022-10-31T16:02:16.105Z,25.38
2022-10-31T16:07:23.213Z,20.42
2022-10-31T16:12:30.338Z,22.90
2022-10-31T16:17:32.783Z,26.63
2022-10-31T16:22:39.686Z,23.38
2022-10-31T16:27:53.859Z,20.23
2022-10-31T16:32:57.442Z,24.15
2022-10-31T16:37:59.135Z,21.63
2022-10-31T16:43:01.981Z,26.20
2022-10-31T16:48:15.518Z,23.35
2022-10-31T16:53:18.372Z,21.40
2022-10-31T16:58:26.246Z,28.52
2022-10-31T17:03:28.120Z,24.27
2022-10-31T17:08:30.841Z,24.17
2022-10-31T17:13:34.678Z,24.08
2022-10-31T17:18:36.141Z,25.02
2022-10-31T17:23:38.561Z,23.58
2022-10-31T17:28:40.156Z,28.65
2022-10-31T17:33:44.067Z,27.90
2022-10-31T17:38:45.552Z,29.00
2022-10-31T17:43:47.051Z,32.20
2022-10-31T17:48:48.538Z,30.05
2022-10-31T17:53:50.044Z,31.08
2022-10-31T17:58:51.605Z,34.90
2022-10-31T18:03:53.097Z,38.35
2022-10-31T18:08:57.871Z,39.67
2022-10-31T18:14:00.161Z,32.97
2022-10-31T18:19:02.044Z,33.35
2022-10-31T18:24:03.680Z,35.97
2022-10-31T18:29:05.448Z,37.40
2022-10-31T18:34:06.984Z,35.72
2022-10-31T18:39:08.505Z,42.75
2022-10-31T18:44:10.140Z,34.95
2022-10-31T18:49:11.625Z,35.00
2022-10-31T18:54:13.161Z,43.28
2022-10-31T18:59:14.701Z,40.58
2022-10-31T19:04:16.713Z,39.45
2022-10-31T19:09:18.186Z,36.40
2022-10-31T19:14:19.737Z,41.72
2022-10-31T19:19:21.224Z,42.35
2022-10-31T19:24:22.799Z,37.53
2022-10-31T19:29:24.315Z,49.67
2022-10-31T19:34:25.817Z,44.47
2022-10-31T19:39:27.315Z,41.60
2022-10-31T19:44:30.884Z,49.67
2022-10-31T19:49:32.521Z,50.33
2022-10-31T19:54:34.287Z,53.85
2022-10-31T19:59:39.363Z,53.50
2022-10-31T20:04:41.113Z,59.63
2022-10-31T20:09:45.551Z,62.03
2022-10-31T20:14:48.671Z,53.22
2022-10-31T20:19:50.226Z,63.45
2022-10-31T20:24:51.909Z,57.75
2022-10-31T20:29:53.406Z,52.58
2022-10-31T20:34:54.901Z,62.47
2022-10-31T20:39:56.723Z,54.85
2022-10-31T20:44:58.321Z,60.22
2022-10-31T20:49:59.827Z,44.58
2022-10-31T20:55:01.377Z,42.33
2022-10-31T21:00:04.192Z,36.05
2022-10-31T21:05:08.313Z,38.60
2022-10-31T21:10:16.072Z,36.28
2022-10-31T21:15:17.620Z,36.15
2022-10-31T21:20:19.164Z,31.88
2022-10-31T21:25:21.270Z,28.48
2022-10-31T21:30:22.727Z,29.85
2022-10-31T21:35:24.171Z,24.30
2022-10-31T21:40:26.645Z,23.52
2022-10-31T21:45:28.116Z,22.27
2022-10-31T21:50:30.403Z,18.58
2022-10-31T21:55:31.859Z,28.98
2022-10-31T22:00:33.322Z,19.88
2022-10-31T22:05:34.992Z,15.18
2022-10-31T22:10:36.452Z,23.50
2022-10-31T22:15:37.945Z,18.00
2022-10-31T22:20:39.396Z,18.48
2022-10-31T22:25:40.867Z,16.02
2022-10-31T22:30:42.336Z,18.13
2022-10-31T22:35:43.870Z,20.50
2022-10-31T22:40:45.652Z,25.50
2022-10-31T22:45:54.576Z,18.23
2022-10-31T22:50:56.084Z,19.05
2022-10-31T22:55:57.535Z,17.83
2022-10-31T23:00:59.493Z,19.92
2022-10-31T23:06:02.468Z,22.90
2022-10-31T23:11:33.514Z,12.07
2022-10-31T23:16:56.883Z,16.00
2022-10-31T23:22:03.970Z,13.63
2022-10-31T23:27:11.458Z,14.70
2022-10-31T23:32:22.322Z,20.05
2022-10-31T23:37:26.704Z,15.05
2022-10-31T23:42:28.515Z,18.27
2022-10-31T23:47:29.999Z,15.25
2022-10-31T23:52:31.472Z,15.95
2022-10-31T23:57:32.969Z,15.48
